Time;durP1;ratioP1;P1;durP2;ratioP2;P2;SDS_P1;SDS_P2;PMS_P1;PMS_P2;Temp;Humidity;BMP_temperature;BMP_pressure;BME280_temperature;BME280_humidity;BME280_pressure;Samples;Min_cycle;Max_cycle;Signal;HPM_P1;HPM_P2
2021/05/09 10:19:32;;;;;;;6.38;1.13;;;;;;;17.93;22.17;94626.59;5132063;27;20479;-68
2021/05/09 10:21:58;;;;;;;2.13;1.13;;;;;;;17.92;22.00;94635.03;5132189;27;20482;-68
2021/05/09 10:24:24;;;;;;;4.05;1.20;;;;;;;18.03;21.66;94626.13;5133525;27;20029;-68
2021/05/09 10:26:50;;;;;;;2.22;1.00;;;;;;;17.89;20.83;94627.59;5132441;27;20027;-68
2021/05/09 10:29:41;;;;;;;5.18;1.98;;;;;;;17.93;20.52;94628.50;5131656;27;20034;-68
2021/05/09 10:32:34;;;;;;;7.20;1.30;;;;;;;18.04;21.70;94626.91;5133189;27;20555;-68
2021/05/09 10:35:01;;;;;;;1.58;1.10;;;;;;;18.25;21.59;94624.03;5131712;27;20037;-68
2021/05/09 10:37:54;;;;;;;5.25;1.20;;;;;;;18.43;21.06;94624.53;5132122;27;20393;-68
2021/05/09 10:40:31;;;;;;;1.02;0.80;;;;;;;18.58;20.86;94623.78;5132125;27;20031;-68
2021/05/09 10:43:03;;;;;;;1.80;1.10;;;;;;;18.67;20.51;94620.94;5132337;27;20062;-69
2021/05/09 10:45:34;;;;;;;5.30;0.90;;;;;;;18.54;19.25;94601.31;5132050;27;20467;-68
2021/05/09 10:48:15;;;;;;;6.13;1.48;;;;;;;18.51;19.67;94603.91;5133221;27;20027;-69
2021/05/09 10:50:44;;;;;;;2.22;0.90;;;;;;;18.57;18.79;94600.59;5131922;27;20027;-69
2021/05/09 10:53:10;;;;;;;1.27;0.80;;;;;;;18.61;20.25;94601.50;5132777;27;20142;-69
2021/05/09 10:55:35;;;;;;;2.15;1.02;;;;;;;18.78;20.08;94596.91;5133158;27;20125;-68
2021/05/09 10:58:02;;;;;;;11.95;2.25;;;;;;;18.79;19.04;94595.81;5131750;27;20117;-68
2021/05/09 11:00:27;;;;;;;1.13;0.90;;;;;;;18.62;18.39;94597.66;5131756;27;20114;-68
2021/05/09 11:02:53;;;;;;;2.42;0.90;;;;;;;18.81;19.44;94594.31;5132010;27;20570;-68
2021/05/09 11:05:20;;;;;;;1.63;0.85;;;;;;;18.92;19.91;94593.81;5132691;27;20007;-68
2021/05/09 11:07:46;;;;;;;2.30;0.98;;;;;;;19.14;20.22;94587.78;5133043;27;20375;-68
2021/05/09 11:10:37;;;;;;;1.35;0.90;;;;;;;19.34;19.85;94585.94;5122902;27;20019;-68
2021/05/09 11:13:06;;;;;;;7.72;0.90;;;;;;;19.39;19.87;94585.66;5128121;27;20492;-68
2021/05/09 11:15:32;;;;;;;2.85;0.95;;;;;;;19.52;19.84;94588.25;5131531;27;20502;-68
2021/05/09 11:17:58;;;;;;;1.90;0.80;;;;;;;19.52;19.12;94580.94;5131473;27;20102;-68
2021/05/09 11:20:24;;;;;;;2.15;1.00;;;;;;;19.76;20.25;94579.16;5131191;27;20051;-68
2021/05/09 11:22:56;;;;;;;13.65;2.83;;;;;;;19.97;19.11;94578.84;5132856;27;20023;-68
2021/05/09 11:25:32;;;;;;;0.95;0.70;;;;;;;19.98;17.97;94572.28;5132149;27;20070;-68
2021/05/09 11:27:57;;;;;;;2.80;0.98;;;;;;;20.15;19.46;94579.19;5132639;27;20035;-68
2021/05/09 11:30:36;;;;;;;2.80;1.15;;;;;;;20.39;19.29;94572.69;5130802;27;20092;-68
2021/05/09 11:33:02;;;;;;;1.38;1.00;;;;;;;20.53;19.23;94575.66;5131130;27;20083;-68
2021/05/09 11:35:39;;;;;;;1.73;0.93;;;;;;;20.73;18.91;94573.75;5130654;27;20019;-68
2021/05/09 11:38:13;;;;;;;3.22;1.40;;;;;;;20.89;18.79;94562.03;5132288;27;20084;-68
2021/05/09 11:40:39;;;;;;;5.38;1.23;;;;;;;21.02;18.34;94552.53;5131506;27;20023;-68
2021/05/09 11:43:14;;;;;;;4.20;1.50;;;;;;;21.15;18.84;94550.44;5131653;27;20098;-68
2021/05/09 11:45:39;;;;;;;5.63;1.98;;;;;;;21.32;18.75;94552.63;5127749;27;20083;-69
2021/05/09 11:48:05;;;;;;;1.00;0.70;;;;;;;21.43;18.26;94552.81;5127589;27;20015;-68
2021/05/09 11:50:31;;;;;;;2.63;1.10;;;;;;;21.60;19.43;94543.38;5115198;27;20115;-68
2021/05/09 11:52:56;;;;;;;2.42;0.98;;;;;;;21.77;17.97;94542.06;5132304;27;20459;-68
2021/05/09 11:55:22;;;;;;;2.88;1.20;;;;;;;21.90;18.29;94546.09;5115156;27;20366;-68
2021/05/09 11:57:47;;;;;;;2.58;1.00;;;;;;;21.96;16.74;94533.78;5111105;28;20554;-68
2021/05/09 12:00:16;;;;;;;3.08;1.00;;;;;;;21.93;17.01;94529.06;5111497;28;20027;-68
2021/05/09 12:02:44;;;;;;;2.95;1.23;;;;;;;22.01;16.85;94529.94;5110984;28;20929;-68
2021/05/09 12:05:13;;;;;;;5.60;1.02;;;;;;;21.89;17.34;94516.63;5125744;27;20023;-68
2021/05/09 12:07:54;;;;;;;5.15;1.25;;;;;;;22.07;17.87;94533.91;5129761;27;20049;-68
2021/05/09 12:10:26;;;;;;;1.65;0.93;;;;;;;22.24;17.32;94522.47;5131407;27;20027;-69
2021/05/09 12:13:05;;;;;;;3.42;1.17;;;;;;;22.39;17.75;94528.88;5130183;27;20047;-68
2021/05/09 12:15:32;;;;;;;12.00;1.17;;;;;;;22.39;16.65;94517.22;5131630;27;20019;-68
2021/05/09 12:17:58;;;;;;;9.70;1.10;;;;;;;22.29;16.66;94513.25;5111403;28;20031;-68
2021/05/09 12:20:30;;;;;;;7.95;1.10;;;;;;;22.27;17.03;94520.16;5110279;28;20530;-68
2021/05/09 12:23:16;;;;;;;4.47;0.75;;;;;;;22.50;16.78;94509.19;5130052;27;20035;-68
2021/05/09 12:25:44;;;;;;;2.80;0.82;;;;;;;22.65;17.23;94505.41;5119736;27;20043;-68
2021/05/09 12:28:18;;;;;;;2.40;0.90;;;;;;;22.79;17.17;94496.63;5131202;27;20017;-69
2021/05/09 12:30:49;;;;;;;2.42;1.00;;;;;;;23.09;17.24;94507.38;5130787;27;20107;-68
2021/05/09 12:33:28;;;;;;;3.25;1.20;;;;;;;23.39;17.18;94506.44;5129501;27;20394;-68
2021/05/09 12:35:55;;;;;;;1.83;1.00;;;;;;;23.57;19.66;94507.31;5119044;27;20023;-68
2021/05/09 12:38:33;;;;;;;4.50;1.15;;;;;;;23.86;18.55;94512.16;5126416;27;20023;-68
2021/05/09 12:41:16;;;;;;;6.05;0.80;;;;;;;23.90;15.87;94510.22;5129393;27;20509;-68
2021/05/09 12:43:48;;;;;;;3.35;0.90;;;;;;;24.11;15.49;94504.84;5130572;27;20125;-68
2021/05/09 12:46:35;;;;;;;4.25;1.27;;;;;;;24.38;19.92;94504.53;5131204;27;20031;-68
2021/05/09 12:49:14;;;;;;;1.83;1.05;;;;;;;24.60;16.31;94499.94;5110376;28;20080;-68
2021/05/09 12:52:04;;;;;;;4.63;1.25;;;;;;;24.73;14.76;94503.84;5128413;27;20027;-69
2021/05/09 12:54:35;;;;;;;2.75;1.00;;;;;;;24.85;15.19;94497.22;5136423;27;20454;-68
2021/05/09 12:57:22;;;;;;;4.30;1.00;;;;;;;24.98;15.32;94506.59;5137510;27;20026;-68
2021/05/09 13:00:03;;;;;;;2.03;0.80;;;;;;;25.15;14.53;94499.56;5136248;27;20030;-68
2021/05/09 13:02:32;;;;;;;2.10;0.82;;;;;;;25.20;14.55;94495.69;5136829;27;20517;-68
2021/05/09 13:05:14;;;;;;;1.33;0.70;;;;;;;25.34;14.89;94490.22;5136174;27;20541;-69
2021/05/09 13:07:40;;;;;;;3.75;1.30;;;;;;;25.44;14.37;94491.34;5121864;27;20042;-68
2021/05/09 13:10:05;;;;;;;3.58;0.93;;;;;;;25.61;14.12;94487.06;5134491;27;20034;-68
2021/05/09 13:12:32;;;;;;;5.03;1.15;;;;;;;25.70;13.95;94486.63;5136198;27;20466;-68
2021/05/09 13:14:57;;;;;;;4.03;3.00;;;;;;;26.07;13.87;94480.66;5136278;27;20027;-68
2021/05/09 13:17:23;;;;;;;4.38;1.50;;;;;;;26.52;13.88;94483.56;5137515;27;20061;-69
2021/05/09 13:19:55;;;;;;;20.42;1.30;;;;;;;27.11;12.91;94484.69;5135657;27;20427;-69
2021/05/09 13:22:20;;;;;;;2.38;0.98;;;;;;;27.59;13.02;94483.88;5135946;27;20118;-68
2021/05/09 13:24:48;;;;;;;2.75;0.98;;;;;;;27.94;11.82;94481.94;5137499;27;20113;-69
2021/05/09 13:27:14;;;;;;;3.15;0.73;;;;;;;27.94;12.09;94481.94;5135732;27;20023;-69
2021/05/09 13:29:40;;;;;;;2.20;0.90;;;;;;;27.97;11.96;94475.66;5135661;27;20019;-69
2021/05/09 13:32:06;;;;;;;4.15;0.98;;;;;;;28.27;11.68;94480.38;5134546;27;20038;-69
2021/05/09 13:34:31;;;;;;;10.57;2.90;;;;;;;29.11;11.87;94472.53;5137128;27;20057;-69
2021/05/09 13:36:57;;;;;;;1.98;0.95;;;;;;;29.72;10.62;94474.97;5136824;27;20015;-68
2021/05/09 13:39:23;;;;;;;5.07;1.33;;;;;;;30.49;10.55;94480.50;5137092;27;20057;-69
2021/05/09 13:41:48;;;;;;;6.15;1.10;;;;;;;31.54;10.73;94485.13;5136692;27;20027;-69
2021/05/09 13:44:14;;;;;;;1.65;1.00;;;;;;;31.69;9.53;94467.00;5135293;27;20113;-69
2021/05/09 13:46:39;;;;;;;6.40;1.45;;;;;;;32.45;9.76;94473.94;5135925;27;20035;-69
2021/05/09 13:49:05;;;;;;;6.97;1.20;;;;;;;33.26;10.21;94471.84;5132945;27;20019;-69
2021/05/09 13:51:30;;;;;;;4.03;1.00;;;;;;;34.14;8.05;94468.44;5116688;27;20027;-69
2021/05/09 13:53:56;;;;;;;3.22;1.00;;;;;;;34.68;8.14;94474.72;5132234;27;20111;-69
2021/05/09 13:56:21;;;;;;;1.88;1.00;;;;;;;35.52;8.04;94471.75;5116301;27;20023;-69
2021/05/09 13:58:51;;;;;;;5.20;0.95;;;;;;;36.41;7.54;94473.88;5131550;27;20058;-69
2021/05/09 14:01:17;;;;;;;1.70;1.00;;;;;;;37.04;6.87;94472.09;5136615;27;20034;-69
2021/05/09 14:03:43;;;;;;;2.47;1.10;;;;;;;37.45;6.84;94482.84;5134444;27;20421;-69
2021/05/09 14:06:08;;;;;;;3.20;1.10;;;;;;;38.02;6.62;94473.63;5131687;27;20078;-71
2021/05/09 14:08:34;;;;;;;5.55;1.10;;;;;;;38.10;6.34;94469.25;5129906;27;20119;-69
2021/05/09 14:10:59;;;;;;;3.28;1.15;;;;;;;37.97;6.31;94469.50;5112973;28;20019;-69
2021/05/09 14:13:25;;;;;;;4.93;1.50;;;;;;;38.47;6.39;94466.88;5113169;28;20030;-69
2021/05/09 14:15:52;;;;;;;5.80;1.13;;;;;;;38.70;6.10;94473.59;5128085;27;20071;-70
2021/05/09 14:18:18;;;;;;;3.05;1.38;;;;;;;38.79;6.26;94469.91;5113081;27;20070;-70
2021/05/09 14:20:44;;;;;;;2.22;1.27;;;;;;;39.39;6.04;94472.56;5126649;27;20502;-70
2021/05/09 14:23:10;;;;;;;5.22;1.20;;;;;;;39.26;6.09;94465.28;5130272;27;20031;-70
2021/05/09 14:25:35;;;;;;;2.50;1.30;;;;;;;39.24;5.84;94462.22;5130637;27;20026;-70
2021/05/09 14:28:01;;;;;;;1.95;1.13;;;;;;;39.58;5.91;94467.50;5131974;27;20176;-69
2021/05/09 14:30:26;;;;;;;5.50;1.00;;;;;;;39.75;6.48;94470.47;5131492;27;20202;-70
2021/05/09 14:32:52;;;;;;;7.03;1.45;;;;;;;40.06;5.58;94465.03;5133348;27;20494;-69
2021/05/09 14:35:17;;;;;;;6.07;1.30;;;;;;;39.99;5.52;94475.84;5131460;27;20019;-70
2021/05/09 14:37:43;;;;;;;6.75;1.17;;;;;;;40.23;5.81;94461.63;5133203;27;20032;-70
2021/05/09 14:40:09;;;;;;;9.75;1.38;;;;;;;40.37;5.25;94469.16;5131147;27;20574;-70
2021/05/09 14:42:34;;;;;;;4.07;1.17;;;;;;;40.30;5.64;94467.56;5128400;27;20021;-74
2021/05/09 14:45:00;;;;;;;4.32;1.27;;;;;;;39.93;5.62;94473.00;5112426;28;20020;-69
2021/05/09 14:47:26;;;;;;;4.65;1.30;;;;;;;39.97;5.64;94473.53;5126563;27;20043;-67
2021/05/09 14:49:52;;;;;;;2.22;1.60;;;;;;;40.12;5.24;94456.72;5131202;27;20546;-67
2021/05/09 14:52:17;;;;;;;2.60;1.30;;;;;;;40.28;5.38;94469.28;5132676;27;20027;-67
2021/05/09 14:54:43;;;;;;;2.15;1.05;;;;;;;40.29;5.39;94466.00;5129906;27;20047;-68
2021/05/09 14:57:09;;;;;;;1.70;1.23;;;;;;;40.24;5.44;94468.72;5131550;27;20029;-67
2021/05/09 14:59:35;;;;;;;1.85;1.10;;;;;;;40.18;5.17;94465.91;5132477;27;20085;-67
2021/05/09 15:02:01;;;;;;;4.78;1.30;;;;;;;40.24;5.40;94460.34;5129798;27;20114;-68
2021/05/09 15:04:27;;;;;;;3.65;1.50;;;;;;;40.30;5.40;94466.78;5131917;27;20492;-67
2021/05/09 15:06:53;;;;;;;2.60;1.40;;;;;;;40.05;5.50;94463.47;5112083;28;20494;-68
2021/05/09 15:09:18;;;;;;;11.57;1.63;;;;;;;39.60;5.81;94462.19;5120423;27;20028;-67
2021/05/09 15:11:43;;;;;;;2.65;1.15;;;;;;;39.21;5.99;94463.19;5113940;27;20452;-67
2021/05/09 15:14:09;;;;;;;3.45;1.10;;;;;;;39.27;6.26;94446.56;5125327;27;20462;-67
2021/05/09 15:16:34;;;;;;;4.15;1.33;;;;;;;39.40;6.27;94458.13;5130509;27;20031;-76
2021/05/09 15:19:00;;;;;;;5.05;1.30;;;;;;;39.52;5.91;94450.69;5132103;27;20043;-67
2021/05/09 15:21:25;;;;;;;10.07;1.55;;;;;;;39.44;6.03;94449.56;5130402;27;20576;-68
2021/05/09 15:23:51;;;;;;;2.85;1.20;;;;;;;39.28;5.75;94451.63;5119912;27;20023;-68
2021/05/09 15:26:20;;;;;;;5.65;1.42;;;;;;;38.96;6.22;94438.75;5126931;27;20034;-66
2021/05/09 15:28:46;;;;;;;2.92;1.33;;;;;;;38.47;6.46;94441.81;5111693;27;20031;-67
2021/05/09 15:31:12;;;;;;;7.80;1.95;;;;;;;38.42;6.78;94447.28;5124377;27;20034;-75
2021/05/09 15:33:37;;;;;;;3.92;1.55;;;;;;;38.34;6.44;94446.88;5129923;27;20023;-75
2021/05/09 15:36:03;;;;;;;5.47;1.70;;;;;;;38.32;6.20;94432.69;5131418;27;20027;-75
2021/05/09 15:38:29;;;;;;;5.50;1.52;;;;;;;38.17;6.57;94435.47;5131351;27;20050;-75
2021/05/09 15:40:54;;;;;;;2.25;1.20;;;;;;;37.76;6.65;94437.22;5129927;27;20419;-74
2021/05/09 15:43:19;;;;;;;3.95;1.33;;;;;;;37.66;6.93;94428.22;5131795;27;20023;-75
2021/05/09 15:45:45;;;;;;;4.28;1.50;;;;;;;37.48;7.30;94429.84;5131478;27;20027;-75
2021/05/09 15:48:10;;;;;;;8.18;1.40;;;;;;;37.26;7.31;94434.97;5131432;27;20031;-75
2021/05/09 15:50:36;;;;;;;13.95;1.83;;;;;;;36.93;7.45;94419.09;5131853;27;20031;-76
2021/05/09 15:53:01;;;;;;;5.72;1.65;;;;;;;36.50;8.12;94427.44;5131090;27;20027;-75
2021/05/09 15:55:28;;;;;;;5.38;1.55;;;;;;;35.41;8.68;94423.53;5131474;27;20594;-75
2021/05/09 15:57:54;;;;;;;2.38;1.17;;;;;;;34.10;9.35;94421.53;5131276;27;20076;-76
2021/05/09 16:00:20;;;;;;;4.47;1.42;;;;;;;32.77;10.54;94433.56;5131054;27;20474;-76
2021/05/09 16:02:47;;;;;;;3.72;1.80;;;;;;;31.59;11.75;94422.00;5129929;27;20055;-77
2021/05/09 16:05:12;;;;;;;5.97;1.50;;;;;;;30.77;12.12;94426.78;5131184;27;20098;-77
2021/05/09 16:07:38;;;;;;;4.72;1.73;;;;;;;29.69;13.49;94423.59;5131279;27;20463;-77
2021/05/09 16:10:04;;;;;;;18.58;2.10;;;;;;;28.86;14.72;94426.25;5130676;27;20031;-76
2021/05/09 16:12:29;;;;;;;8.45;1.65;;;;;;;28.24;14.90;94428.34;5130486;27;20088;-75
2021/05/09 16:14:59;;;;;;;4.95;2.00;;;;;;;27.55;15.53;94428.38;5129250;27;20034;-75
2021/05/09 16:17:25;;;;;;;7.15;1.70;;;;;;;26.89;16.39;94424.72;5122325;27;20479;-75
2021/05/09 16:19:50;;;;;;;4.93;1.55;;;;;;;26.40;17.15;94424.66;5130807;27;20037;-75
2021/05/09 16:22:16;;;;;;;4.70;1.50;;;;;;;26.07;17.13;94422.53;5118711;27;20039;-78
2021/05/09 16:24:41;;;;;;;2.92;1.73;;;;;;;25.73;17.87;94423.84;5110681;28;20011;-77
2021/05/09 16:27:07;;;;;;;4.20;1.48;;;;;;;25.38;18.01;94428.25;5119662;27;20096;-76
2021/05/09 16:29:32;;;;;;;5.15;1.52;;;;;;;24.98;19.43;94427.50;5129360;27;20080;-77
2021/05/09 16:31:58;;;;;;;8.63;1.92;;;;;;;24.67;19.37;94429.09;5130939;27;20019;-76
2021/05/09 16:34:23;;;;;;;8.73;1.90;;;;;;;24.40;20.10;94436.81;5131070;27;20015;-77
2021/05/09 16:36:48;;;;;;;8.70;2.00;;;;;;;24.38;20.13;94433.69;5118146;27;20022;-76
2021/05/09 16:39:14;;;;;;;6.80;2.00;;;;;;;24.18;20.31;94433.28;5110407;28;20019;-76
2021/05/09 16:41:39;;;;;;;4.85;1.98;;;;;;;24.02;20.23;94430.94;5129308;27;20061;-76
2021/05/09 16:44:05;;;;;;;3.63;2.08;;;;;;;23.76;20.93;94432.75;5129527;27;20047;-76
2021/05/09 16:46:30;;;;;;;7.05;2.20;;;;;;;23.58;21.20;94434.63;5129684;27;20482;-76
2021/05/09 16:48:56;;;;;;;2.85;1.30;;;;;;;23.22;21.52;94437.16;5129767;27;20023;-77
2021/05/09 16:51:21;;;;;;;5.68;3.00;;;;;;;22.92;22.33;94435.41;5130677;27;20109;-76
2021/05/09 16:56:15;;;;;;;6.43;2.10;;;;;;;22.36;22.66;94433.78;5110285;28;20554;-76
2021/05/09 16:58:40;;;;;;;4.07;1.75;;;;;;;22.09;23.03;94428.44;5128787;28;20110;-76
2021/05/09 17:01:06;;;;;;;3.80;2.22;;;;;;;21.95;23.76;94441.88;5131183;27;20030;-76
2021/05/09 17:03:32;;;;;;;3.22;2.17;;;;;;;21.80;23.71;94444.44;5126629;27;20031;-76
2021/05/09 17:05:57;;;;;;;5.85;2.05;;;;;;;21.71;23.86;94440.44;5110309;28;20038;-76
2021/05/09 17:08:22;;;;;;;9.50;1.98;;;;;;;21.53;24.66;94446.41;5128427;28;20118;-76
2021/05/09 17:10:48;;;;;;;3.80;2.13;;;;;;;21.21;24.62;94449.47;5130785;27;20021;-76
2021/05/09 17:13:22;;;;;;;8.65;1.80;;;;;;;21.08;24.83;94447.34;5121105;28;20028;-75
2021/05/09 17:15:48;;;;;;;6.07;2.60;;;;;;;20.68;26.09;94438.63;5128892;28;20023;-76
2021/05/09 17:18:13;;;;;;;5.35;1.98;;;;;;;20.53;25.46;94444.91;5130393;27;20379;-75
2021/05/09 17:20:39;;;;;;;3.58;1.83;;;;;;;20.19;25.63;94442.00;5130429;27;20050;-76
2021/05/09 17:23:04;;;;;;;7.25;2.80;;;;;;;19.92;26.96;94441.16;5114045;27;20031;-76
2021/05/09 17:25:29;;;;;;;8.38;2.30;;;;;;;19.79;26.54;94444.00;5126973;28;20558;-75
2021/05/09 17:27:55;;;;;;;8.25;1.95;;;;;;;19.66;26.97;94439.84;5129343;28;20037;-76
2021/05/09 17:30:20;;;;;;;9.38;1.80;;;;;;;19.49;27.11;94443.00;5123223;27;20046;-75
2021/05/09 17:32:48;;;;;;;6.18;2.55;;;;;;;19.39;27.48;94453.22;5127914;28;20050;-75
2021/05/09 17:35:13;;;;;;;3.47;1.75;;;;;;;19.30;27.51;94452.66;5130426;27;20023;-75
2021/05/09 17:37:39;;;;;;;5.15;2.42;;;;;;;19.14;28.04;94444.59;5130428;27;20023;-75
2021/05/09 17:40:06;;;;;;;4.53;1.60;;;;;;;19.09;27.80;94457.59;5115990;27;20023;-75
2021/05/09 17:42:31;;;;;;;3.63;2.08;;;;;;;18.98;28.18;94457.34;5113859;28;20168;-75
2021/05/09 17:44:56;;;;;;;9.98;2.20;;;;;;;18.80;28.57;94465.81;5116337;27;20019;-76
2021/05/09 17:47:29;;;;;;;13.32;2.00;;;;;;;18.61;29.09;94461.09;5113644;28;20408;-76
2021/05/09 17:49:58;;;;;;;11.05;2.28;;;;;;;18.50;28.98;94460.06;5121736;27;20464;-76
2021/05/09 17:52:24;;;;;;;4.72;1.80;;;;;;;18.49;28.79;94458.50;5113303;28;20020;-75
2021/05/09 17:54:50;;;;;;;5.95;1.77;;;;;;;18.49;29.15;94463.91;5112789;28;20072;-75
2021/05/09 17:57:15;;;;;;;7.10;1.67;;;;;;;18.40;28.58;94452.50;5113214;28;20031;-76
2021/05/09 17:59:41;;;;;;;8.63;1.90;;;;;;;18.39;28.36;94459.00;5122931;27;20490;-75
2021/05/09 18:02:07;;;;;;;3.60;1.80;;;;;;;18.31;28.38;94459.97;5128464;27;20032;-75
2021/05/09 18:04:32;;;;;;;6.60;1.95;;;;;;;18.21;28.72;94459.34;5114290;27;20023;-76
2021/05/09 18:06:57;;;;;;;5.88;1.65;;;;;;;18.13;28.42;94460.28;5112783;28;20027;-75
2021/05/09 18:09:25;;;;;;;5.63;1.60;;;;;;;18.08;28.80;94465.16;5128808;27;20328;-75
2021/05/09 18:11:50;;;;;;;9.82;4.13;;;;;;;18.00;28.89;94474.97;5132164;27;20031;-75
2021/05/09 18:14:16;;;;;;;4.45;2.33;;;;;;;17.88;29.63;94470.44;5133678;27;20023;-75
2021/05/09 18:17:12;;;;;;;5.82;1.58;;;;;;;17.86;28.81;94474.59;5133310;27;20072;-75
2021/05/09 18:24:48;;;;;;;6.75;1.48;;;;;;;17.66;28.49;94482.50;5116859;27;20108;-75
2021/05/09 18:27:13;;;;;;;3.05;1.48;;;;;;;17.60;28.73;94483.88;5112818;28;20110;-75
2021/05/09 18:29:40;;;;;;;8.95;1.38;;;;;;;17.48;28.80;94481.22;5112977;28;20023;-75
2021/05/09 18:32:06;;;;;;;7.15;1.85;;;;;;;17.42;29.08;94483.34;5130902;27;20050;-75
2021/05/09 18:34:32;;;;;;;10.00;1.80;;;;;;;17.36;28.92;94484.72;5131651;27;20109;-74
2021/05/09 18:36:57;;;;;;;3.25;1.65;;;;;;;17.35;28.86;94481.25;5117451;27;20172;-74
2021/05/09 18:39:23;;;;;;;5.47;2.15;;;;;;;17.35;29.38;94481.25;5131368;27;20023;-75
2021/05/09 18:41:48;;;;;;;8.15;2.58;;;;;;;17.29;28.99;94485.31;5131736;27;20021;-75
2021/05/09 18:44:15;;;;;;;6.10;2.33;;;;;;;17.21;29.11;94483.53;5131020;27;20019;-74
2021/05/09 18:46:41;;;;;;;5.40;2.65;;;;;;;17.14;28.85;94486.00;5131629;27;20031;-75
2021/05/09 18:49:06;;;;;;;4.63;2.03;;;;;;;17.13;29.32;94485.22;5129928;27;20098;-74
2021/05/09 18:51:33;;;;;;;5.95;2.22;;;;;;;17.12;29.52;94488.25;5130778;27;20043;-74
2021/05/09 18:53:58;;;;;;;6.55;1.90;;;;;;;17.03;29.24;94501.81;5117441;27;20085;-75
2021/05/09 18:56:23;;;;;;;5.03;2.10;;;;;;;16.99;29.65;94496.31;5127670;27;20040;-74
2021/05/09 18:58:49;;;;;;;7.22;2.42;;;;;;;16.95;29.25;94500.81;5112247;28;20102;-76
2021/05/09 19:01:14;;;;;;;6.32;3.00;;;;;;;16.92;29.21;94496.13;5112234;28;20031;-76
2021/05/09 19:03:41;;;;;;;8.18;2.30;;;;;;;16.87;29.59;94501.72;5111693;28;20063;-76
2021/05/09 19:06:17;;;;;;;6.75;2.00;;;;;;;16.85;29.56;94493.19;5127165;27;20035;-76
2021/05/09 19:08:42;;;;;;;10.10;2.30;;;;;;;16.84;29.46;94499.72;5128085;27;20380;-76
2021/05/09 19:11:08;;;;;;;6.80;2.30;;;;;;;16.82;29.29;94497.34;5112322;28;20076;-76
2021/05/09 19:13:33;;;;;;;4.43;2.08;;;;;;;16.77;29.42;94510.22;5128962;27;20079;-75
2021/05/09 19:15:59;;;;;;;6.78;3.38;;;;;;;16.74;29.36;94500.91;5123169;27;20156;-76
2021/05/09 19:18:24;;;;;;;8.52;2.78;;;;;;;16.74;29.49;94503.59;5131179;27;20101;-77
2021/05/09 19:20:50;;;;;;;7.22;2.17;;;;;;;16.69;29.23;94505.72;5131639;27;20128;-76
2021/05/09 19:23:15;;;;;;;8.00;3.05;;;;;;;16.68;29.95;94509.56;5132432;27;20036;-76
2021/05/09 19:25:41;;;;;;;7.18;2.85;;;;;;;16.66;29.83;94509.88;5122460;27;20044;-75
2021/05/09 19:28:06;;;;;;;4.22;2.17;;;;;;;16.57;30.04;94504.59;5127336;27;20140;-76
2021/05/09 19:30:31;;;;;;;7.55;2.20;;;;;;;16.57;30.06;94506.53;5111493;28;20339;-76
2021/05/09 19:32:57;;;;;;;7.35;2.50;;;;;;;16.55;30.22;94512.22;5129151;27;20023;-76
2021/05/09 19:35:22;;;;;;;5.70;2.10;;;;;;;16.54;30.16;94509.88;5132212;27;20483;-76
2021/05/09 19:37:48;;;;;;;5.22;2.38;;;;;;;16.47;30.82;94506.97;5131768;27;20031;-76
2021/05/09 19:40:14;;;;;;;7.45;1.95;;;;;;;16.41;31.00;94511.75;5112402;27;20102;-76
2021/05/09 19:42:40;;;;;;;6.28;1.73;;;;;;;16.43;30.97;94517.59;5126335;27;20031;-76
2021/05/09 19:45:06;;;;;;;5.05;1.98;;;;;;;16.33;31.77;94518.03;5128983;27;20037;-75
2021/05/09 19:47:38;;;;;;;7.35;1.95;;;;;;;16.21;31.76;94514.19;5124376;27;20023;-76
2021/05/09 19:50:07;;;;;;;4.30;1.95;;;;;;;16.18;31.95;94519.41;5128386;27;20445;-76
2021/05/09 19:52:32;;;;;;;3.67;1.40;;;;;;;16.15;31.41;94522.78;5116535;27;20099;-76
2021/05/09 19:54:58;;;;;;;6.47;2.25;;;;;;;16.15;32.03;94525.47;5113739;27;20480;-76
2021/05/09 19:57:23;;;;;;;3.22;2.08;;;;;;;16.13;32.27;94522.34;5110963;28;20399;-76
2021/05/09 19:59:48;;;;;;;2.92;1.60;;;;;;;16.10;32.73;94526.47;5118454;27;20015;-76
2021/05/09 20:02:14;;;;;;;3.03;1.42;;;;;;;16.01;32.41;94520.38;5130493;27;20050;-76
2021/05/09 20:04:39;;;;;;;6.93;1.58;;;;;;;15.92;33.08;94519.69;5130278;27;20048;-76
2021/05/09 20:07:06;;;;;;;6.70;1.95;;;;;;;15.84;32.99;94532.88;5129552;27;20026;-75
2021/05/09 20:09:31;;;;;;;8.25;1.70;;;;;;;15.80;33.15;94528.50;5119680;27;20023;-75
2021/05/09 20:11:57;;;;;;;3.17;1.73;;;;;;;15.80;33.44;94523.13;5125935;27;20015;-76
2021/05/09 20:14:22;;;;;;;6.15;2.05;;;;;;;15.78;33.55;94534.19;5127202;27;20023;-76
2021/05/09 20:16:47;;;;;;;3.40;1.20;;;;;;;15.72;33.34;94523.94;5116436;28;20019;-79
2021/05/09 20:19:13;;;;;;;2.50;1.27;;;;;;;15.56;33.21;94527.22;5140794;27;20078;-77
2021/05/09 20:21:39;;;;;;;8.30;1.83;;;;;;;15.44;33.37;94527.16;5111801;28;20032;-75
2021/05/09 20:24:04;;;;;;;1.88;0.90;;;;;;;15.37;33.52;94526.91;5127834;27;20027;-76
2021/05/09 20:26:30;;;;;;;6.70;1.60;;;;;;;15.30;33.83;94540.03;5126971;27;20040;-76
2021/05/09 20:28:55;;;;;;;4.32;1.50;;;;;;;15.23;33.97;94535.19;5111168;28;20027;-76
2021/05/09 20:31:21;;;;;;;5.05;1.45;;;;;;;15.05;34.33;94535.28;5119208;27;20075;-76
2021/05/09 20:33:46;;;;;;;6.13;1.65;;;;;;;14.95;34.49;94546.41;5121808;27;20427;-76
2021/05/09 20:36:11;;;;;;;2.20;1.40;;;;;;;14.94;34.61;94550.22;5122169;27;20039;-76
2021/05/09 20:38:37;;;;;;;7.60;2.75;;;;;;;14.80;35.40;94546.97;5118301;27;20644;-77
2021/05/09 20:41:02;;;;;;;4.63;1.65;;;;;;;14.78;35.39;94554.53;5124748;27;20011;-76
2021/05/09 20:43:28;;;;;;;3.00;1.50;;;;;;;14.68;35.62;94547.63;5122054;27;20107;-75
2021/05/09 20:45:54;;;;;;;4.13;1.50;;;;;;;14.64;35.69;94549.38;5129900;27;20027;-76
2021/05/09 20:48:20;;;;;;;2.30;1.48;;;;;;;14.58;35.95;94554.13;5128831;27;20114;-76
2021/05/09 20:50:45;;;;;;;5.68;1.52;;;;;;;14.51;35.70;94545.78;5110449;28;20137;-76
2021/05/09 20:53:10;;;;;;;5.45;1.60;;;;;;;14.45;35.85;94549.75;5126533;28;20023;-76
2021/05/09 20:55:36;;;;;;;3.97;1.67;;;;;;;14.47;35.80;94552.88;5122181;27;20738;-76
2021/05/09 20:58:02;;;;;;;2.33;1.10;;;;;;;14.51;34.92;94559.19;5129539;28;20080;-76
2021/05/09 21:00:28;;;;;;;3.33;1.55;;;;;;;14.35;34.31;94558.09;5129433;27;20032;-76
2021/05/09 21:02:55;;;;;;;3.83;1.50;;;;;;;14.33;34.54;94560.31;5130257;28;20031;-76
2021/05/09 21:05:20;;;;;;;3.65;1.48;;;;;;;14.27;35.14;94565.06;5129646;28;20534;-76
2021/05/09 21:07:45;;;;;;;4.28;1.40;;;;;;;14.17;35.79;94560.84;5129600;27;20114;-76
2021/05/09 21:10:11;;;;;;;4.22;1.52;;;;;;;14.07;36.04;94565.75;5129825;27;20113;-76
2021/05/09 21:12:37;;;;;;;3.92;1.60;;;;;;;13.87;36.09;94561.81;5122585;27;20039;-76
2021/05/09 21:15:02;;;;;;;3.38;1.60;;;;;;;13.65;36.42;94561.63;5133524;27;20023;-75
2021/05/09 21:17:28;;;;;;;7.95;1.45;;;;;;;13.54;37.31;94571.09;5134194;27;20051;-76
2021/05/09 21:19:53;;;;;;;3.28;1.48;;;;;;;13.56;37.79;94574.25;5123218;27;20047;-76
2021/05/09 21:22:18;;;;;;;8.73;1.80;;;;;;;13.46;37.45;94565.75;5114658;28;20028;-76
2021/05/09 21:24:44;;;;;;;4.13;1.90;;;;;;;13.41;37.74;94574.69;5126028;27;20030;-76
2021/05/09 21:27:09;;;;;;;3.00;1.60;;;;;;;13.37;37.88;94577.22;5126606;27;20027;-76
2021/05/09 21:29:36;;;;;;;7.78;1.42;;;;;;;13.30;37.94;94574.22;5133687;27;20069;-76
2021/05/09 21:32:02;;;;;;;5.50;1.70;;;;;;;13.24;38.19;94583.47;5134092;27;20074;-75
2021/05/09 21:34:27;;;;;;;5.05;1.40;;;;;;;13.22;38.17;94581.09;5134277;27;20076;-83
2021/05/09 21:36:53;;;;;;;7.90;2.63;;;;;;;13.23;38.72;94577.34;5126244;27;20031;-71
2021/05/09 21:39:18;;;;;;;2.22;1.63;;;;;;;13.20;38.77;94587.88;5134074;27;20110;-70
2021/05/09 21:41:43;;;;;;;5.63;1.65;;;;;;;13.15;38.53;94583.47;5133269;27;20579;-71
2021/05/09 21:44:09;;;;;;;5.25;1.67;;;;;;;13.12;38.88;94575.25;5129554;27;20019;-71
2021/05/09 21:46:34;;;;;;;6.80;1.63;;;;;;;13.02;39.55;94585.13;5133630;27;20034;-72
2021/05/09 21:49:00;;;;;;;4.18;1.80;;;;;;;12.95;39.26;94592.84;5125474;27;20027;-70
2021/05/09 21:51:25;;;;;;;5.25;1.42;;;;;;;12.88;39.39;94578.31;5128120;27;20088;-71
2021/05/09 21:53:50;;;;;;;1.95;1.40;;;;;;;12.83;39.40;94584.59;5129426;27;20474;-70
2021/05/09 21:56:16;;;;;;;3.05;1.92;;;;;;;12.81;39.99;94586.81;5125748;27;20024;-71
2021/05/09 21:58:41;;;;;;;3.53;1.60;;;;;;;12.76;40.53;94578.91;5130118;27;20075;-71
2021/05/09 22:01:07;;;;;;;5.30;1.70;;;;;;;12.79;40.71;94583.66;5129056;27;20474;-70